<?xml version="1.0" encoding="utf-8"?>
<gpx xmlns:xsi="http://www.w3.org/2001/XMLSchema-instance" xmlns:xsd="http://www.w3.org/2001/XMLSchema" version="1.1" creator="Shapelink.com" xmlns="http://www.topografix.com/GPX/1/1" xmlns:gpxtpx="http://www.garmin.com/xmlschemas/TrackPointExtension/v1">
  <metadata>
    <name>Løping 0.84 km, 2012-09-03</name>
    <desc></desc>
    <author><name>Mikael Blom</name></author> 
    <time>2012-09-03T20:14:55Z</time>
  </metadata>
  <trk>
    <name>Løping 0.84 km, 2012-09-03</name>
    <trkseg>
      <trkpt lat="59.9520652" lon="17.7255069">
        <ele>42.916</ele>
        <time>2012-09-03T20:14:55Z</time>
      </trkpt>
      <trkpt lat="59.9521315" lon="17.7253575">
        <ele>42.916</ele>
        <time>2012-09-03T20:14:59Z</time>
      </trkpt>
      <trkpt lat="59.9521907" lon="17.7252635">
        <ele>43.3966</ele>
        <time>2012-09-03T20:15:02Z</time>
      </trkpt>
      <trkpt lat="59.952235" lon="17.7251666">
        <ele>42.4354</ele>
        <time>2012-09-03T20:15:05Z</time>
      </trkpt>
      <trkpt lat="59.9523067" lon="17.7250602">
        <ele>42.916</ele>
        <time>2012-09-03T20:15:10Z</time>
      </trkpt>
      <trkpt lat="59.9523768" lon="17.7248955">
        <ele>40.9934</ele>
        <time>2012-09-03T20:15:15Z</time>
      </trkpt>
      <trkpt lat="59.9524486" lon="17.7247946">
        <ele>40.0321</ele>
        <time>2012-09-03T20:15:19Z</time>
      </trkpt>
      <trkpt lat="59.9525314" lon="17.7246801">
        <ele>40.9934</ele>
        <time>2012-09-03T20:15:24Z</time>
      </trkpt>
      <trkpt lat="59.9526098" lon="17.7244995">
        <ele>40.5128</ele>
        <time>2012-09-03T20:15:29Z</time>
      </trkpt>
      <trkpt lat="59.9526684" lon="17.7243635">
        <ele>40.9934</ele>
        <time>2012-09-03T20:15:33Z</time>
      </trkpt>
      <trkpt lat="59.9527108" lon="17.7241506">
        <ele>40.9934</ele>
        <time>2012-09-03T20:15:37Z</time>
      </trkpt>
      <trkpt lat="59.9527437" lon="17.7240027">
        <ele>41.474</ele>
        <time>2012-09-03T20:15:40Z</time>
      </trkpt>
      <trkpt lat="59.9527285" lon="17.7238485">
        <ele>41.474</ele>
        <time>2012-09-03T20:15:44Z</time>
      </trkpt>
      <trkpt lat="59.9526853" lon="17.7236912">
        <ele>40.5128</ele>
        <time>2012-09-03T20:15:48Z</time>
      </trkpt>
      <trkpt lat="59.9526235" lon="17.7235325">
        <ele>40.0321</ele>
        <time>2012-09-03T20:15:52Z</time>
      </trkpt>
      <trkpt lat="59.9525828" lon="17.7233788">
        <ele>40.0321</ele>
        <time>2012-09-03T20:15:56Z</time>
      </trkpt>
      <trkpt lat="59.9525564" lon="17.7232181">
        <ele>40.5128</ele>
        <time>2012-09-03T20:16:00Z</time>
      </trkpt>
      <trkpt lat="59.9525367" lon="17.7229267">
        <ele>40.5128</ele>
        <time>2012-09-03T20:16:06Z</time>
      </trkpt>
      <trkpt lat="59.9525745" lon="17.7227082">
        <ele>41.9547</ele>
        <time>2012-09-03T20:16:11Z</time>
      </trkpt>
      <trkpt lat="59.9526518" lon="17.7224589">
        <ele>44.8386</ele>
        <time>2012-09-03T20:16:18Z</time>
      </trkpt>
      <trkpt lat="59.9527201" lon="17.7222984">
        <ele>43.8773</ele>
        <time>2012-09-03T20:16:23Z</time>
      </trkpt>
      <trkpt lat="59.9528087" lon="17.7221564">
        <ele>44.358</ele>
        <time>2012-09-03T20:16:28Z</time>
      </trkpt>
      <trkpt lat="59.9528717" lon="17.7221254">
        <ele>47.2418</ele>
        <time>2012-09-03T20:16:31Z</time>
      </trkpt>
      <trkpt lat="59.9529932" lon="17.722002">
        <ele>49.6453</ele>
        <time>2012-09-03T20:16:37Z</time>
      </trkpt>
      <trkpt lat="59.95309" lon="17.7219433">
        <ele>51.0872</ele>
        <time>2012-09-03T20:16:41Z</time>
      </trkpt>
      <trkpt lat="59.9531842" lon="17.7218889">
        <ele>51.5679</ele>
        <time>2012-09-03T20:16:45Z</time>
      </trkpt>
      <trkpt lat="59.9532793" lon="17.7217517">
        <ele>52.5292</ele>
        <time>2012-09-03T20:16:50Z</time>
      </trkpt>
      <trkpt lat="59.9533451" lon="17.7215886">
        <ele>51.5679</ele>
        <time>2012-09-03T20:16:55Z</time>
      </trkpt>
      <trkpt lat="59.9533929" lon="17.721402">
        <ele>48.2034</ele>
        <time>2012-09-03T20:16:59Z</time>
      </trkpt>
      <trkpt lat="59.9534232" lon="17.7211027">
        <ele>48.2034</ele>
        <time>2012-09-03T20:17:05Z</time>
      </trkpt>
      <trkpt lat="59.9534524" lon="17.7208518">
        <ele>47.2418</ele>
        <time>2012-09-03T20:17:10Z</time>
      </trkpt>
      <trkpt lat="59.953492" lon="17.7205272">
        <ele>49.6453</ele>
        <time>2012-09-03T20:17:17Z</time>
      </trkpt>
      <trkpt lat="59.9535611" lon="17.7202537">
        <ele>51.0872</ele>
        <time>2012-09-03T20:17:23Z</time>
      </trkpt>
      <trkpt lat="59.9536109" lon="17.7201057">
        <ele>50.6066</ele>
        <time>2012-09-03T20:17:27Z</time>
      </trkpt>
      <trkpt lat="59.9536773" lon="17.7199423">
        <ele>52.5292</ele>
        <time>2012-09-03T20:17:32Z</time>
      </trkpt>
      <trkpt lat="59.9537401" lon="17.7198227">
        <ele>55.4131</ele>
        <time>2012-09-03T20:17:36Z</time>
      </trkpt>
      <trkpt lat="59.9537976" lon="17.7196162">
        <ele>57.8165</ele>
        <time>2012-09-03T20:17:41Z</time>
      </trkpt>
      <trkpt lat="59.9538083" lon="17.7195566">
        <ele>57.3358</ele>
        <time>2012-09-03T20:17:42Z</time>
      </trkpt>
      <trkpt lat="59.9538845" lon="17.7192535">
        <ele>55.4131</ele>
        <time>2012-09-03T20:17:49Z</time>
      </trkpt>
      <trkpt lat="59.9539596" lon="17.7190264">
        <ele>53.9712</ele>
        <time>2012-09-03T20:17:54Z</time>
      </trkpt>
      <trkpt lat="59.9540063" lon="17.7189131">
        <ele>53.4905</ele>
        <time>2012-09-03T20:17:58Z</time>
      </trkpt>
      <trkpt lat="59.9540331" lon="17.7186169">
        <ele>51.5679</ele>
        <time>2012-09-03T20:18:04Z</time>
      </trkpt>
      <trkpt lat="59.9540843" lon="17.7183541">
        <ele>50.126</ele>
        <time>2012-09-03T20:18:10Z</time>
      </trkpt>
      <trkpt lat="59.9541104" lon="17.7182607">
        <ele>50.126</ele>
        <time>2012-09-03T20:18:13Z</time>
      </trkpt>
      <trkpt lat="59.9541489" lon="17.7181206">
        <ele>49.6453</ele>
        <time>2012-09-03T20:18:17Z</time>
      </trkpt>
      <trkpt lat="59.9542301" lon="17.7179451">
        <ele>47.7225</ele>
        <time>2012-09-03T20:18:23Z</time>
      </trkpt>
      <trkpt lat="59.9543253" lon="17.7177388">
        <ele>45.3192</ele>
        <time>2012-09-03T20:18:30Z</time>
      </trkpt>
      <trkpt lat="59.9543979" lon="17.7174772">
        <ele>44.8386</ele>
        <time>2012-09-03T20:18:36Z</time>
      </trkpt>
      <trkpt lat="59.954445" lon="17.7173187">
        <ele>43.8773</ele>
        <time>2012-09-03T20:18:40Z</time>
      </trkpt>
      <trkpt lat="59.9544704" lon="17.7171936">
        <ele>43.8773</ele>
        <time>2012-09-03T20:18:43Z</time>
      </trkpt>
      <trkpt lat="59.9545167" lon="17.7168213">
        <ele>42.916</ele>
        <time>2012-09-03T20:18:49Z</time>
      </trkpt>
      <trkpt lat="59.9545217" lon="17.7167572">
        <ele>43.3966</ele>
        <time>2012-09-03T20:18:50Z</time>
      </trkpt>
      <trkpt lat="59.9545311" lon="17.716537">
        <ele>43.3966</ele>
        <time>2012-09-03T20:18:54Z</time>
      </trkpt>
      <trkpt lat="59.9545435" lon="17.7164871">
        <ele>43.3966</ele>
        <time>2012-09-03T20:18:55Z</time>
      </trkpt>
      <trkpt lat="59.9545911" lon="17.7161904">
        <ele>43.3966</ele>
        <time>2012-09-03T20:19:01Z</time>
      </trkpt>
      <trkpt lat="59.9546134" lon="17.7160201">
        <ele>44.358</ele>
        <time>2012-09-03T20:19:05Z</time>
      </trkpt>
      <trkpt lat="59.9546315" lon="17.7158501">
        <ele>45.7999</ele>
        <time>2012-09-03T20:19:09Z</time>
      </trkpt>
      <trkpt lat="59.9546495" lon="17.7155222">
        <ele>43.8773</ele>
        <time>2012-09-03T20:19:15Z</time>
      </trkpt>
      <trkpt lat="59.9546543" lon="17.715302">
        <ele>42.916</ele>
        <time>2012-09-03T20:19:19Z</time>
      </trkpt>
      <trkpt lat="59.9546984" lon="17.7151016">
        <ele>41.474</ele>
        <time>2012-09-03T20:19:23Z</time>
      </trkpt>
      <trkpt lat="59.954749" lon="17.7149368">
        <ele>41.9547</ele>
        <time>2012-09-03T20:19:27Z</time>
      </trkpt>
      <trkpt lat="59.9548237" lon="17.7147552">
        <ele>41.9547</ele>
        <time>2012-09-03T20:19:32Z</time>
      </trkpt>
      <trkpt lat="59.9549359" lon="17.7146438">
        <ele>41.9547</ele>
        <time>2012-09-03T20:19:37Z</time>
      </trkpt>
      <trkpt lat="59.9549579" lon="17.7146152">
        <ele>41.9547</ele>
        <time>2012-09-03T20:19:38Z</time>
      </trkpt>
      <trkpt lat="59.9550408" lon="17.7144169">
        <ele>41.474</ele>
        <time>2012-09-03T20:19:43Z</time>
      </trkpt>
      <trkpt lat="59.955088" lon="17.7143743">
        <ele>41.474</ele>
        <time>2012-09-03T20:19:45Z</time>
      </trkpt>
      <trkpt lat="59.9551626" lon="17.7142635">
        <ele>41.474</ele>
        <time>2012-09-03T20:19:50Z</time>
      </trkpt>
      <trkpt lat="59.9551942" lon="17.7141898">
        <ele>41.9547</ele>
        <time>2012-09-03T20:19:52Z</time>
      </trkpt>
      <trkpt lat="59.9553385" lon="17.7141442">
        <ele>42.4354</ele>
        <time>2012-09-03T20:19:58Z</time>
      </trkpt>
      <trkpt lat="59.9553563" lon="17.7141607">
        <ele>42.4354</ele>
        <time>2012-09-03T20:19:59Z</time>
      </trkpt>
      <trkpt lat="59.9554349" lon="17.714438">
        <ele>42.916</ele>
        <time>2012-09-03T20:20:05Z</time>
      </trkpt>
      <trkpt lat="59.9554925" lon="17.7147267">
        <ele>43.8773</ele>
        <time>2012-09-03T20:20:09Z</time>
      </trkpt>
      <trkpt lat="59.9555053" lon="17.7148389">
        <ele>44.358</ele>
        <time>2012-09-03T20:20:11Z</time>
      </trkpt>
    </trkseg>
  </trk>
</gpx>